首页
METAR-TAF:

METAR-TAF

机场 :

梅赫拉巴德國際機場

德黑兰, 伊朗

纬度: 35-41N, 经度: 051-21E, 海拔: 1204米

当前天气观测

该预报发布于16分钟前的08:30 UTC
风速8节,风向东南
温度 33°C
湿度 13%
气压 1012 hPa
能见度10公里或以上
1500米以下无云,无积雨云

METAR: OIII 140830Z 14008KT CAVOK 33/01 Q1012 A2989

时间: 13:16 (08:46 UTC)

预报

该预报发布于3小时和46分钟前的05:00 UTC
预报有效从14日的 06点(UTC)到 15日的 12点(UTC)
风速8节,风向东转东南
能见度10公里或以上
1500米以下无云,无积雨云
短暂存在
从 14日的 09点(UTC)到 14日的 15点(UTC)
风速16节,风向东转东南

TAF: OIII 140500Z 1406/1512 12004MPS CAVOK TEMPO 1409/1415 12008MPS

超过4000个机场的气象观测和天气预报(METAR&TAF报告)。

可查询的气象台以黄色和红色小点在地图上表示。

将鼠标移到小点上方,可查看气象台名称。

然后点击查看天气观测和预报。

如需切换地图:点击带黑十字的绿色按钮放大地图;点击带横线的绿色按钮缩小地图;或者点击绿色箭头查看邻近地区的地图。


METAR-TAF: